createdAt,value
2023-01-10T00:01:36.633Z,98921.69
2023-01-10T00:04:39.360Z,98877.22
2023-01-10T00:07:42.263Z,98929.00
2023-01-10T00:10:44.892Z,98919.94
2023-01-10T00:13:47.441Z,98905.59
2023-01-10T00:16:50.077Z,98919.13
2023-01-10T00:19:54.859Z,98914.31
2023-01-10T00:22:57.948Z,98901.66
2023-01-10T00:26:00.481Z,98910.47
2023-01-10T00:29:03.368Z,98925.06
2023-01-10T00:32:05.915Z,98927.91
2023-01-10T00:35:09.480Z,98927.56
2023-01-10T00:38:15.192Z,98901.63
2023-01-10T00:41:36.307Z,98929.59
2023-01-10T00:44:38.899Z,98934.50
2023-01-10T00:47:41.484Z,98950.38
2023-01-10T00:50:44.091Z,98938.31
2023-01-10T00:53:46.695Z,98945.41
2023-01-10T00:56:49.291Z,98952.94
2023-01-10T00:59:51.864Z,98958.63
2023-01-10T01:02:54.912Z,98954.59
2023-01-10T01:05:57.547Z,98973.19
2023-01-10T01:09:00.168Z,98961.34
2023-01-10T01:12:02.737Z,98972.22
2023-01-10T01:15:05.900Z,98984.59
2023-01-10T01:18:08.876Z,98982.13
2023-01-10T01:21:11.503Z,98988.41
2023-01-10T01:24:14.104Z,98987.81
2023-01-10T01:27:16.671Z,98978.56
2023-01-10T01:30:19.237Z,98983.63
2023-01-10T01:33:21.847Z,98991.72
2023-01-10T01:36:24.435Z,98995.44
2023-01-10T01:39:27.076Z,98982.56
2023-01-10T01:42:34.679Z,99003.88
2023-01-10T01:45:40.445Z,99003.56
2023-01-10T01:48:46.990Z,99012.88
2023-01-10T01:51:51.758Z,98992.94
2023-01-10T01:54:58.041Z,99011.53
2023-01-10T01:58:04.209Z,99026.88
2023-01-10T02:01:07.208Z,98998.56
2023-01-10T02:04:22.273Z,99000.19
2023-01-10T02:07:26.281Z,98994.94
2023-01-10T02:10:34.377Z,98992.69
2023-01-10T02:13:44.724Z,98983.34
2023-01-10T02:16:47.402Z,98980.16
2023-01-10T02:20:03.426Z,98940.38
2023-01-10T02:23:15.148Z,98974.06
2023-01-10T02:26:50.783Z,98961.72
2023-01-10T02:30:06.299Z,98955.69
2023-01-10T02:33:40.545Z,98988.03
2023-01-10T02:37:08.769Z,99012.09
2023-01-10T02:40:35.600Z,99018.78
2023-01-10T02:43:48.181Z,98971.81
2023-01-10T02:46:51.025Z,98991.91
2023-01-10T02:49:53.670Z,98989.06
2023-01-10T02:53:03.449Z,98993.31
2023-01-10T02:56:27.427Z,98990.06
2023-01-10T02:59:53.653Z,98986.25
2023-01-10T03:03:04.948Z,98986.63
2023-01-10T03:06:14.343Z,98990.31
2023-01-10T03:09:24.422Z,98980.34
2023-01-10T03:12:37.975Z,98992.69
2023-01-10T03:15:41.630Z,98994.31
2023-01-10T03:18:56.442Z,98996.50
2023-01-10T03:22:01.736Z,98993.88
2023-01-10T03:25:07.248Z,99010.13
2023-01-10T03:28:15.591Z,99018.78
2023-01-10T03:31:31.172Z,99008.91
2023-01-10T03:34:36.503Z,98960.06
2023-01-10T03:38:02.256Z,99011.13
2023-01-10T03:41:18.025Z,98993.38
2023-01-10T03:44:52.898Z,99029.78
2023-01-10T03:47:56.894Z,99027.00
2023-01-10T03:51:00.565Z,99037.44
2023-01-10T03:54:03.333Z,99047.78
2023-01-10T03:57:09.070Z,99044.34
2023-01-10T04:00:13.162Z,99017.72
2023-01-10T04:03:18.690Z,99025.75
2023-01-10T04:06:21.397Z,99034.88
2023-01-10T04:09:28.407Z,99039.91
2023-01-10T04:12:31.315Z,99022.16
2023-01-10T04:15:36.911Z,99046.44
2023-01-10T04:18:42.096Z,99054.16
2023-01-10T04:21:47.536Z,99055.78
2023-01-10T04:24:52.096Z,99061.41
2023-01-10T04:27:54.672Z,99058.81
2023-01-10T04:30:57.166Z,99045.91
2023-01-10T04:34:00.233Z,99077.22
2023-01-10T04:37:02.809Z,99073.56
2023-01-10T04:40:08.704Z,99064.72
2023-01-10T04:43:14.157Z,99092.81
2023-01-10T04:46:17.053Z,99092.22
2023-01-10T04:49:19.568Z,99108.19
2023-01-10T04:52:22.141Z,99120.97
2023-01-10T04:55:27.391Z,99139.13
2023-01-10T04:58:29.979Z,99138.50
2023-01-10T05:01:32.837Z,99150.06
2023-01-10T05:04:35.462Z,99127.84
2023-01-10T05:07:39.033Z,99135.94
2023-01-10T05:10:41.639Z,99167.28
2023-01-10T05:13:45.967Z,99161.41
2023-01-10T05:16:49.711Z,99152.53
2023-01-10T05:19:52.300Z,99161.03
2023-01-10T05:22:55.012Z,99153.28
2023-01-10T05:25:57.719Z,99156.09
2023-01-10T05:29:00.220Z,99169.47
2023-01-10T05:32:02.911Z,99177.38
2023-01-10T05:35:06.061Z,99177.78
2023-01-10T05:38:08.552Z,99153.38
2023-01-10T05:41:13.570Z,99154.63
2023-01-10T05:44:16.166Z,99183.03
2023-01-10T05:47:27.707Z,99187.72
2023-01-10T05:50:30.264Z,99180.06
2023-01-10T05:53:36.256Z,99191.38
2023-01-10T05:56:39.050Z,99171.97
2023-01-10T05:59:41.638Z,99198.06
2023-01-10T06:02:44.267Z,99183.31
2023-01-10T06:05:48.766Z,99184.38
2023-01-10T06:08:51.709Z,99211.63
2023-01-10T06:11:54.381Z,99211.25
2023-01-10T06:14:56.909Z,99228.25
2023-01-10T06:17:59.519Z,99222.97
2023-01-10T06:21:02.063Z,99229.03
2023-01-10T06:24:05.012Z,99235.53
2023-01-10T06:27:07.734Z,99230.69
2023-01-10T06:30:13.500Z,99223.22
2023-01-10T06:33:18.341Z,99229.47
2023-01-10T06:36:20.939Z,99254.56
2023-01-10T06:39:23.567Z,99248.09
2023-01-10T06:42:26.240Z,99263.66
2023-01-10T06:45:29.679Z,99254.00
2023-01-10T06:48:32.271Z,99283.06
2023-01-10T06:51:34.953Z,99283.69
2023-01-10T06:54:37.475Z,99289.59
2023-01-10T06:57:40.147Z,99303.13
2023-01-10T07:00:42.684Z,99303.56
2023-01-10T07:03:45.401Z,99290.41
2023-01-10T07:06:48.129Z,99315.91
2023-01-10T07:09:50.706Z,99355.97
2023-01-10T07:12:55.946Z,99339.53
2023-01-10T07:16:07.023Z,99316.28
2023-01-10T07:19:10.070Z,99354.53
2023-01-10T07:22:12.722Z,99363.25
2023-01-10T07:25:15.402Z,99361.63
2023-01-10T07:28:19.166Z,99330.28
2023-01-10T07:31:26.350Z,99368.50
2023-01-10T07:34:29.564Z,99379.03
2023-01-10T07:37:32.067Z,99382.28
2023-01-10T07:40:37.729Z,99386.31
2023-01-10T07:43:41.213Z,99368.31
2023-01-10T07:46:43.879Z,99376.41
2023-01-10T07:49:46.568Z,99391.00
2023-01-10T07:52:50.412Z,99399.69
2023-01-10T07:55:53.080Z,99425.44
2023-01-10T07:58:55.751Z,99422.59
2023-01-10T08:01:58.266Z,99408.81
2023-01-10T08:05:01.352Z,99428.06
2023-01-10T08:08:08.290Z,99431.69
2023-01-10T08:11:13.371Z,99439.78
2023-01-10T08:14:16.117Z,99447.06
2023-01-10T08:17:19.056Z,99438.00
2023-01-10T08:20:22.777Z,99419.16
2023-01-10T08:23:27.307Z,99503.00
2023-01-10T08:26:31.284Z,99486.59
2023-01-10T08:29:33.983Z,99471.00
2023-01-10T08:32:37.734Z,99494.09
2023-01-10T08:35:43.369Z,99501.38
2023-01-10T08:38:46.387Z,99514.34
2023-01-10T08:41:49.735Z,99490.66
2023-01-10T08:46:10.375Z,99532.16
2023-01-10T08:49:17.444Z,99443.25
2023-01-10T08:52:30.557Z,99449.31
2023-01-10T08:55:35.710Z,99382.13
2023-01-10T08:58:45.949Z,99380.88
2023-01-10T09:02:02.816Z,99468.34
2023-01-10T09:05:56.811Z,99386.13
2023-01-10T09:09:05.895Z,99549.00
2023-01-10T09:12:36.960Z,99563.16
2023-01-10T09:15:44.678Z,99572.69
2023-01-10T09:18:49.808Z,99568.00
2023-01-10T09:21:59.136Z,99594.13
2023-01-10T09:25:01.781Z,99572.84
2023-01-10T09:28:05.611Z,99601.63
2023-01-10T09:31:15.133Z,99601.44
2023-01-10T09:34:19.970Z,99548.91
2023-01-10T09:37:23.026Z,99643.78
2023-01-10T09:40:37.647Z,99656.31
2023-01-10T09:43:46.147Z,99642.75
2023-01-10T09:47:21.705Z,99633.41
2023-01-10T09:50:43.889Z,99627.56
2023-01-10T09:53:53.607Z,99656.75
2023-01-10T09:57:05.183Z,99627.13
2023-01-10T10:00:12.116Z,99643.94
2023-01-10T10:03:23.099Z,99667.25
2023-01-10T10:06:27.557Z,99652.25
2023-01-10T10:09:36.223Z,99633.16
2023-01-10T10:12:52.984Z,99663.16
2023-01-10T10:16:26.443Z,99664.22
2023-01-10T10:20:15.550Z,99683.84
2023-01-10T10:23:23.809Z,99653.84
2023-01-10T10:26:42.891Z,99681.41
2023-01-10T10:30:05.007Z,99681.66
2023-01-10T10:33:21.834Z,99659.91
2023-01-10T10:36:26.933Z,99701.13
2023-01-10T10:39:42.072Z,99669.69
2023-01-10T10:42:52.171Z,99701.13
2023-01-10T10:46:00.020Z,99707.00
2023-01-10T10:49:18.644Z,99715.13
2023-01-10T10:52:34.947Z,99715.75
2023-01-10T10:55:38.046Z,99717.56
2023-01-10T10:58:42.448Z,99732.75
2023-01-10T11:01:49.936Z,99724.81
2023-01-10T11:04:56.592Z,99726.06
2023-01-10T11:08:07.172Z,99738.88
2023-01-10T11:11:20.164Z,99737.03
2023-01-10T11:14:46.069Z,99741.13
2023-01-10T11:18:03.417Z,99740.31
2023-01-10T11:21:12.697Z,99745.16
2023-01-10T11:24:27.024Z,99762.19
2023-01-10T11:27:47.823Z,99737.06
2023-01-10T11:30:51.269Z,99769.91
2023-01-10T11:33:54.183Z,99750.66
2023-01-10T11:37:00.743Z,99763.84
2023-01-10T11:40:24.227Z,99751.88
2023-01-10T11:43:30.671Z,99739.13
2023-01-10T11:46:33.999Z,99746.41
2023-01-10T11:49:39.250Z,99758.19
2023-01-10T11:52:45.039Z,99754.34
2023-01-10T11:55:48.968Z,99755.94
2023-01-10T11:58:52.487Z,99756.38
2023-01-10T12:01:58.521Z,99773.63
2023-01-10T12:05:04.867Z,99774.22
2023-01-10T12:08:09.661Z,99776.66
2023-01-10T12:11:18.403Z,99801.81
2023-01-10T12:14:21.286Z,99781.53
2023-01-10T12:17:34.029Z,99795.31
2023-01-10T12:20:51.139Z,99803.66
2023-01-10T12:23:55.331Z,99797.94
2023-01-10T12:26:59.905Z,99791.06
2023-01-10T12:30:16.723Z,99777.47
2023-01-10T12:33:22.741Z,99781.31
2023-01-10T12:37:10.663Z,99759.22
2023-01-10T12:40:47.963Z,99806.91
2023-01-10T12:44:09.423Z,99817.25
2023-01-10T12:47:14.880Z,99812.59
2023-01-10T12:50:29.176Z,99819.06
2023-01-10T12:53:36.877Z,99866.56
2023-01-10T12:56:40.229Z,99805.69
2023-01-10T12:59:45.041Z,99850.16
2023-01-10T13:02:49.691Z,99830.66
2023-01-10T13:05:54.321Z,99838.38
2023-01-10T13:08:58.866Z,99829.41
2023-01-10T13:12:06.275Z,99902.50
2023-01-10T13:15:29.683Z,99882.59
2023-01-10T13:18:33.019Z,99906.53
2023-01-10T13:21:36.949Z,99899.88
2023-01-10T13:24:40.395Z,99910.59
2023-01-10T13:27:43.063Z,99886.22
2023-01-10T13:30:57.959Z,99882.59
2023-01-10T13:34:06.379Z,99930.09
2023-01-10T13:37:14.391Z,99933.16
2023-01-10T13:40:30.970Z,99909.41
2023-01-10T13:43:36.960Z,99921.41
2023-01-10T13:46:46.129Z,99926.91
2023-01-10T13:49:48.806Z,99944.13
2023-01-10T13:53:03.934Z,99949.41
2023-01-10T13:56:42.685Z,99944.97
2023-01-10T14:00:19.965Z,99946.38
2023-01-10T14:03:47.420Z,99953.91
2023-01-10T14:06:58.307Z,99945.78
2023-01-10T14:10:09.583Z,99952.88
2023-01-10T14:13:21.193Z,99985.19
2023-01-10T14:16:39.038Z,99986.00
2023-01-10T14:19:47.035Z,99987.03
2023-01-10T14:23:05.520Z,99982.34
2023-01-10T14:26:34.169Z,100000.00
2023-01-10T14:29:37.884Z,99993.91
2023-01-10T14:32:43.824Z,99989.63
2023-01-10T14:35:56.643Z,100018.47
2023-01-10T14:39:03.634Z,100017.47
2023-01-10T14:42:09.239Z,100017.06
2023-01-10T14:45:26.531Z,100032.28
2023-01-10T14:48:33.510Z,100029.03
2023-01-10T14:51:36.140Z,100017.28
2023-01-10T14:54:42.770Z,100017.25
2023-01-10T14:58:02.015Z,100016.06
2023-01-10T15:01:05.822Z,100012.19
2023-01-10T15:04:17.254Z,100021.13
2023-01-10T15:07:22.925Z,100053.84
2023-01-10T15:10:35.343Z,100059.13
2023-01-10T15:13:48.391Z,100065.44
2023-01-10T15:16:55.234Z,100073.75
2023-01-10T15:19:58.534Z,100079.81
2023-01-10T15:23:02.013Z,100065.41
2023-01-10T15:26:24.855Z,100110.72
2023-01-10T15:29:28.137Z,100089.34
2023-01-10T15:32:37.169Z,100115.59
2023-01-10T15:35:39.786Z,100118.66
2023-01-10T15:38:47.347Z,100120.47
2023-01-10T15:41:55.184Z,100120.66
2023-01-10T15:44:58.481Z,100140.38
2023-01-10T15:48:11.535Z,100118.81
2023-01-10T15:51:28.430Z,100137.13
2023-01-10T15:54:32.177Z,100102.53
2023-01-10T15:57:38.355Z,100145.44
2023-01-10T16:00:48.384Z,100138.09
2023-01-10T16:03:59.524Z,100165.16
2023-01-10T16:07:09.839Z,100144.03
2023-01-10T16:10:25.605Z,100119.34
2023-01-10T16:13:28.646Z,100157.81
2023-01-10T16:16:31.534Z,100147.19
2023-01-10T16:19:34.831Z,100182.06
2023-01-10T16:22:39.539Z,100188.72
2023-01-10T16:25:48.225Z,100190.34
2023-01-10T16:28:50.976Z,100093.59
2023-01-10T16:31:53.842Z,100153.84
2023-01-10T16:34:56.609Z,100171.72
2023-01-10T16:38:00.741Z,100131.22
2023-01-10T16:41:23.135Z,100230.97
2023-01-10T16:44:25.716Z,100144.88
2023-01-10T16:47:28.520Z,100265.53
2023-01-10T16:50:31.236Z,100229.38
2023-01-10T16:53:34.016Z,100188.56
2023-01-10T16:56:36.841Z,100239.34
2023-01-10T16:59:39.421Z,100202.34
2023-01-10T17:02:44.070Z,100205.88
2023-01-10T17:05:46.981Z,100258.41
2023-01-10T17:08:49.811Z,100270.56
2023-01-10T17:12:02.313Z,100237.78
2023-01-10T17:15:06.665Z,100260.56
2023-01-10T17:18:10.564Z,100263.63
2023-01-10T17:21:18.794Z,100246.97
2023-01-10T17:24:21.496Z,100284.25
2023-01-10T17:27:27.246Z,100257.97
2023-01-10T17:30:29.918Z,100214.72
2023-01-10T17:33:32.630Z,100299.91
2023-01-10T17:36:40.689Z,100249.97
2023-01-10T17:39:43.510Z,100296.44
2023-01-10T17:42:46.377Z,100274.47
2023-01-10T17:45:50.974Z,100294.19
2023-01-10T17:48:53.660Z,100311.09
2023-01-10T17:51:58.918Z,100281.47
2023-01-10T17:55:03.482Z,100219.19
2023-01-10T17:58:06.141Z,100278.25
2023-01-10T18:01:19.008Z,100232.94
2023-01-10T18:04:26.965Z,100225.97
2023-01-10T18:07:33.332Z,100217.94
2023-01-10T18:10:36.237Z,100265.81
2023-01-10T18:13:40.170Z,100261.69
2023-01-10T18:16:42.987Z,100273.66
2023-01-10T18:19:46.071Z,100308.88
2023-01-10T18:23:07.678Z,100258.13
2023-01-10T18:26:12.274Z,100306.47
2023-01-10T18:29:15.170Z,100295.31
2023-01-10T18:32:21.491Z,100319.50
2023-01-10T18:35:24.494Z,100254.47
2023-01-10T18:38:31.486Z,100249.47
2023-01-10T18:41:34.301Z,100263.56
2023-01-10T18:44:37.622Z,100289.44
2023-01-10T18:47:42.810Z,100246.75
2023-01-10T18:50:47.383Z,100322.19
2023-01-10T18:53:52.929Z,100281.72
2023-01-10T18:56:58.858Z,100275.34
2023-01-10T19:00:01.624Z,100307.53
2023-01-10T19:03:04.475Z,100380.31
2023-01-10T19:06:11.185Z,100318.09
2023-01-10T19:09:16.856Z,100284.00
2023-01-10T19:12:19.872Z,100321.44
2023-01-10T19:15:22.765Z,100290.66
2023-01-10T19:18:25.552Z,100285.19
2023-01-10T19:21:30.507Z,100309.66
2023-01-10T19:24:37.686Z,100290.84
2023-01-10T19:27:40.727Z,100297.94
2023-01-10T19:30:43.414Z,100325.31
2023-01-10T19:33:48.931Z,100316.78
2023-01-10T19:36:51.756Z,100380.22
2023-01-10T19:39:54.691Z,100361.91
2023-01-10T19:43:04.196Z,100313.63
2023-01-10T19:46:13.381Z,100382.47
2023-01-10T19:49:19.698Z,100425.97
2023-01-10T19:52:22.510Z,100334.31
2023-01-10T19:55:25.382Z,100349.28
2023-01-10T19:58:28.141Z,100377.72
2023-01-10T20:01:31.959Z,100420.75
2023-01-10T20:04:36.658Z,100344.31
2023-01-10T20:07:39.435Z,100374.38
2023-01-10T20:10:42.630Z,100341.63
2023-01-10T20:13:49.448Z,100441.84
2023-01-10T20:16:55.005Z,100414.09
2023-01-10T20:19:58.230Z,100369.84
2023-01-10T20:23:01.401Z,100365.09
2023-01-10T20:26:06.951Z,100404.94
2023-01-10T20:29:12.292Z,100354.91
2023-01-10T20:32:15.307Z,100382.72
2023-01-10T20:35:22.065Z,100397.41
2023-01-10T20:38:26.255Z,100391.44
2023-01-10T20:41:31.728Z,100379.53
2023-01-10T20:44:34.479Z,100394.94
2023-01-10T20:47:37.306Z,100453.28
2023-01-10T20:50:43.163Z,100369.88
2023-01-10T20:53:45.876Z,100419.47
2023-01-10T20:56:51.152Z,100407.69
2023-01-10T20:59:53.977Z,100375.97
2023-01-10T21:02:56.797Z,100416.41
2023-01-10T21:06:02.750Z,100382.50
2023-01-10T21:09:07.616Z,100422.06
2023-01-10T21:12:22.928Z,100461.09
2023-01-10T21:15:26.510Z,100426.03
2023-01-10T21:18:34.577Z,100408.22
2023-01-10T21:21:38.405Z,100393.88
2023-01-10T21:24:42.951Z,100404.69
2023-01-10T21:27:45.544Z,100464.81
2023-01-10T21:30:48.383Z,100375.25
2023-01-10T21:33:53.980Z,100365.53
2023-01-10T21:36:57.111Z,100397.41
2023-01-10T21:39:59.926Z,100393.84
2023-01-10T21:43:02.938Z,100385.22
2023-01-10T21:46:05.893Z,100490.03
2023-01-10T21:49:09.526Z,100461.38
2023-01-10T21:52:12.291Z,100442.75
2023-01-10T21:55:16.274Z,100424.91
2023-01-10T21:58:18.946Z,100428.38
2023-01-10T22:01:22.731Z,100435.09
2023-01-10T22:04:25.524Z,100469.38
2023-01-10T22:07:29.034Z,100435.09
2023-01-10T22:10:34.382Z,100490.75
2023-01-10T22:13:40.300Z,100442.63
2023-01-10T22:16:43.097Z,100434.81
2023-01-10T22:19:45.720Z,100479.19
2023-01-10T22:22:48.361Z,100401.72
2023-01-10T22:26:06.276Z,100447.28
2023-01-10T22:29:08.947Z,100419.72
2023-01-10T22:32:12.832Z,100450.25
2023-01-10T22:35:15.575Z,100486.53
2023-01-10T22:38:18.589Z,100479.63
2023-01-10T22:41:29.033Z,100382.34
2023-01-10T22:44:31.641Z,100467.84
2023-01-10T22:47:34.282Z,100391.72
2023-01-10T22:50:37.038Z,100484.22
2023-01-10T22:53:39.692Z,100392.56
2023-01-10T22:56:46.525Z,100393.94
2023-01-10T22:59:49.137Z,100443.72
2023-01-10T23:02:51.977Z,100404.66
2023-01-10T23:05:58.690Z,100497.84
2023-01-10T23:09:11.903Z,100443.16
2023-01-10T23:12:14.430Z,100499.50
2023-01-10T23:15:19.398Z,100431.06
2023-01-10T23:18:26.272Z,100446.66
2023-01-10T23:21:29.425Z,100470.50
2023-01-10T23:24:32.028Z,100422.22
2023-01-10T23:27:34.783Z,100487.47
2023-01-10T23:30:37.410Z,100431.34
2023-01-10T23:33:42.213Z,100426.53
2023-01-10T23:36:44.772Z,100442.56
2023-01-10T23:39:48.665Z,100479.19
2023-01-10T23:42:51.314Z,100467.50
2023-01-10T23:45:54.083Z,100460.13
2023-01-10T23:48:57.850Z,100461.88
2023-01-10T23:52:00.417Z,100429.72
2023-01-10T23:55:05.384Z,100481.94
2023-01-10T23:58:08.052Z,100475.59
